x

North Hecate Strait (46183) Wave Buoy

6:00am - Fri 31st Oct 2014 All times are PDT. -7 hours from GMT.

  • Sig Wave height 4.6ft
  • Peak Period 9s
  • Wind
    9mph, 11mph gusts
  • Sea Temp 53°f
  • Air Temp 47°f
  • Sea Pressure 1005.2mb
  • North Hecate Strait
  • North Hecate Strait

More Historic Weather Station data

Upgrade to MSW Pro to gain access to the past 30 days of data for over 8000 Wavebouys and Weather Stations around the globe.

Join Pro

Comparision Forecast

View Surf forecast
   
Fri 10/31 6:00am 4.5ft 9s 9 11 mph 1005.2mb 53f 47f
5:00am 5ft 8s 9 11 mph 1004.7mb 53f 48f
4:00am 5ft 9s 11 16 mph 1004.4mb 53f 47f
3:00am 5ft 9s 9 11 mph 1003.9mb 52f 47f
2:00am 5ft 9s 9 13 mph 1003.5mb 52f 47f
1:00am 6ft 10s 9 11 mph 1002.7mb 53f 47f
12:00am 6ft 10s 13 16 mph 1001.8mb 53f 46f
Thu 10/30 11:00pm 6ft 10s 13 18 mph 1001.1mb 53f 46f
10:00pm 7ft 10s 18 25 mph 999.9mb 53f 48f
9:00pm 6.5ft 11s 11 16 mph 1000.1mb 53f 48f
8:00pm 7.5ft 10s 9 13 mph 999.9mb 53f 47f
7:00pm 8.5ft 10s 13 18 mph 999.7mb 53f 46f
6:00pm 8.5ft 10s 16 22 mph 999mb 53f 47f
5:00pm 9ft 10s 13 20 mph 998.8mb 53f 47f
4:00pm 9.5ft 11s 16 20 mph 998.7mb 53f 47f
3:00pm 10ft 11s 25 31 mph 997.6mb 53f 53f
2:00pm 11ft 12s 22 27 mph 996.7mb 53f 53f
1:00pm 11ft 10s 20 25 mph 996.3mb 53f 52f
12:00pm 12ft 11s 20 25 mph 995.8mb 53f 51f
11:00am 9.5ft 10s 11 13 mph 994.7mb 53f 51f
10:00am 10ft 10s 13 18 mph 995.6mb 53f 50f
9:00am 11ft 10s 18 22 mph 996.7mb 54f 50f
8:00am 12.5ft 10s 18 22 mph 997.4mb 54f 51f
7:00am 13ft 9s 29 36 mph 997.9mb 54f 51f
6:00am 15.5ft 10s 31
mph
997.7mb 54f 52f
5:00am  -   -  38
mph
998.3mb - 52f
4:00am 14ft 8s 38 45 mph 999.3mb 53f 53f
3:00am 13ft 8s 36 45 mph 1000.7mb 53f 53f
2:00am 12ft 8s 36 45 mph 1002.1mb 53f 53f
12:00am 10ft 8s 36 45 mph 1004.1mb 53f 54f
Wed 10/29 11:00pm 9ft 8s 36 43 mph 1005.4mb 53f 53f
10:00pm 9ft 7s 34 40 mph 1005.9mb 53f 53f
9:00pm  -   -  27
mph
1006.8mb - 53f
8:00pm 8ft 7s 31 38 mph 1007.4mb 53f 53f
7:00pm 8ft 6s 31 40 mph 1008mb 53f 53f
5:00pm 6ft 5s 34 47 mph 1009.1mb 53f 53f
4:00pm 5.5ft 5s 27 36 mph 1010mb 53f 53f
3:00pm 5ft 5s 27 31 mph 1010.6mb 53f 53f
2:00pm 4.5ft 8s 25 29 mph 1011.2mb 53f 52f
1:00pm 3.5ft 9s 25 31 mph 1011.5mb 53f 52f
12:00pm 3.5ft 10s 22 25 mph 1011.6mb 53f 53f
11:00am 3.5ft 9s 18 22 mph 1011.2mb 53f 52f
10:00am 3ft 9s 16 18 mph 1010.8mb 53f 52f
9:00am 3ft 10s 13 16 mph 1010.5mb 53f 52f
8:00am 3.5ft 9s 11 13 mph 1009.9mb 53f 51f
7:00am 3.5ft 8s 9 11 mph 1009.3mb 53f 51f
6:00am 4ft 8s 11
mph
1009mb 53f 51f
5:00am 4ft 10s 7 9 mph 1008.3mb 53f 51f
4:00am 4ft 9s 7 9 mph 1007.6mb 53f 51f
3:00am 4.5ft 10s 7 9 mph 1007mb 53f 50f
2:00am 4.5ft 10s 16 18 mph 1005.9mb 53f 51f
1:00am 4ft 10s 18 20 mph 1004.9mb 53f 51f
12:00am 4ft 8s 13 16 mph 1004.1mb 53f 51f
Tue 10/28 11:00pm 4.5ft 11s 13 18 mph 1002.9mb 53f 51f
10:00pm 4.5ft 10s 18 22 mph 1001.3mb 53f 52f
9:00pm 4.5ft 10s 16 18 mph 999.9mb 53f 52f
8:00pm 5ft 9s 18 20 mph 998.5mb 53f 52f
7:00pm 5ft 9s 20 25 mph 997mb 53f 53f
6:00pm 7ft 10s 16 20 mph 996.1mb 53f 54f
5:00pm 7.5ft 10s 13 16 mph 994.6mb 53f 54f
4:00pm 8ft 10s 16 20 mph 993.7mb 53f 54f
3:00pm 9ft 10s 18 22 mph 993mb 53f 54f
2:00pm 9ft 10s 16 20 mph 992.5mb 53f 54f
1:00pm 9.5ft 11s 18 22 mph 991.8mb 53f 54f
11:00am 12ft 10s 29 36 mph 990.5mb 53f 53f
10:00am 13ft 12s 31 40 mph 990mb 53f 52f
9:00am 13ft 11s 34 40 mph 989.8mb 53f 53f
8:00am 12.5ft 12s 31 38 mph 989.9mb 53f 51f
7:00am  -   -  34
mph
989.6mb - 51f
5:00am  -   -  34
mph
989.7mb - 52f
4:00am 15.5ft 10s 36 47 mph 989.9mb 53f 51f
3:00am 14ft 11s 36 43 mph 990.8mb 52f 52f
2:00am  -   -  34
mph
991.5mb - 51f
1:00am  -   -  29
mph
992.6mb - 51f
12:00am 15ft 11s 36 45 mph 993mb 51f 51f
Mon 10/27 11:00pm 13.5ft 10s 36 43 mph 993.6mb 51f 50f
10:00pm 13ft 10s 36 45 mph 994.4mb 51f 50f
9:00pm 12ft 8s 31 40 mph 995.6mb 51f 51f
8:00pm 10.5ft 9s 31 40 mph 996.5mb 52f 50f
7:00pm  -   -  31
mph
997.6mb - 51f
6:00pm  -   -  31
mph
998.6mb - 50f
5:00pm 9.5ft 8s 25 31 mph 1000.4mb 52f 49f
4:00pm 9ft 8s 29 36 mph 1001.2mb 52f 48f
3:00pm  -   -  29
mph
1002.9mb - 49f